Latest Weather Observations for Thredbo Top Station

IDN60901

Issued at 9:41 am EST Wednesday 22 September 2021 (issued every 10 minutes, with the page automatically refreshed every 10 minutes)

About weather observations | Map of Canberra area stations | Latest observations for Canberra area | Other Formats
Station Details ID: 071032 Name: THREDBO AWS Lat: -36.49 Lon: 148.29 Height: 1957.0 m
Data from the previous 72 hours. | See also: Recent months at Thredbo Top Station
Date/Time
EST
Temp
°C
App
Temp
°C
Dew
Point
°C
Rel
Hum
%
Delta-T
°C
Wind Press
QNH
hPa
Press
MSL
hPa
Rain since
9am
mm
Dir  Spd
km/h
Gust
km/h
Spd
kts
Gust
kts
22/09:30am 1.5 -4.4 -1.9 78 1.4 SSW 19 30 10 16 1024.2 1025.5 0.0
22/09:00am 0.8 -5.2 -2.9 76 1.5 SSW 19 32 10 17 1024.2 1025.5 1.2
22/08:30am 0.1 -6.0 -3.8 75 1.5 SSW 19 30 10 16 1023.7 1025.0 1.2
22/08:00am -0.1 -5.0 -3.8 76 1.4 S 13 22 7 12 1023.4 1024.6 1.2
22/07:30am -0.2 -6.5 -3.7 77 1.3 SSW 20 30 11 16 1022.8 1024.0 1.2
22/07:00am -0.7 -5.9 -2.6 87 0.7 S 15 26 8 14 1022.5 1023.8 1.2
22/06:30am -1.8 -8.8 -3.1 91 0.4 SSW 24 33 13 18 1022.0 1023.3 1.2
22/06:00am -2.2 -9.5 -2.9 95 0.2 SSW 26 37 14 20 1021.7 1022.9 1.2
22/05:30am -2.3 -10.0 -2.7 97 0.0 SW 28 43 15 23 1021.3 1022.5 1.2
22/05:00am -2.0 -8.1 -2.3 98 0.0 SSW 20 30 11 16 1021.6 1022.7 1.2
22/04:30am -1.8 -9.8 -2.1 98 0.0 SSW 30 41 16 22 1021.4 1022.6 1.2
22/04:00am -1.7 -9.7 -2.0 98 0.0 SSW 30 46 16 25 1021.2 1022.4 1.2
22/03:30am -2.0 -11.3 -2.3 98 0.0 SSW 37 50 20 27 1021.0 1022.1 1.2
22/03:00am -2.0 -11.3 -2.3 98 0.0 SSW 37 46 20 25 1021.3 1022.5 1.0
22/02:30am -2.0 -10.4 -2.3 98 0.0 SSW 32 43 17 23 1021.8 1023.0 1.0
22/02:00am -2.4 -11.0 -2.8 97 0.0 SSW 33 52 18 28 1021.8 1023.0 1.0
22/01:59am -2.5 -11.1 -2.9 97 0.0 SSW 33 52 18 28 1021.9 1023.1 1.0
22/01:30am -2.8 -11.3 -3.2 97 0.0 SSW 32 41 17 22 1022.2 1023.4 1.0
22/01:00am -2.6 -11.3 -3.0 97 0.0 SSW 33 46 18 25 1022.3 1023.5 1.0
22/12:30am -2.6 -12.0 -3.0 97 0.0 SSW 37 52 20 28 1022.7 1023.9 1.0
22/12:00am -2.6 -12.0 -3.0 97 0.0 SSW 37 50 20 27 1022.4 1023.6 1.0
 
Date/Time
EST
Temp
°C
App
Temp
°C
Dew
Point
°C
Rel
Hum
%
Delta-T
°C
Wind Press
QNH
hPa
Press
MSL
hPa
Rain since
9am
mm
Dir  Spd
km/h
Gust
km/h
Spd
kts
Gust
kts
21/11:41pm -2.7 -11.2 -3.1 97 0.0 SSW 32 50 17 27 1022.4 1023.6 1.0
21/11:30pm -2.7 -10.8 -3.1 97 0.0 SSW 30 39 16 21 1022.5 1023.8 1.0
21/11:00pm -2.9 -11.4 -3.3 97 0.0 SSW 32 44 17 24 1022.3 1023.5 1.0
21/10:30pm -3.2 -11.4 -3.6 97 0.0 SSW 30 43 16 23 1022.3 1023.5 1.0
21/10:00pm -3.5 -11.3 -3.9 97 0.0 SSW 28 37 15 20 1022.4 1023.6 1.0
21/09:30pm -3.7 -10.8 -4.1 97 0.0 SSW 24 32 13 17 1022.4 1023.6 1.0
21/09:00pm -4.0 -12.7 -4.7 95 0.1 SW 32 41 17 22 1022.3 1023.5 1.0
21/08:30pm -4.1 -12.1 -5.3 91 0.2 SW 28 39 15 21 1022.3 1023.5 1.0
21/08:00pm -3.7 -12.5 -4.7 93 0.2 SW 33 44 18 24 1022.0 1023.3 1.0
21/07:30pm -3.6 -12.2 -4.4 94 0.1 WSW 32 44 17 24 1022.0 1023.3 1.0
21/07:00pm -3.6 -12.4 -4.4 94 0.1 SW 33 44 18 24 1020.8 1022.0 1.0
21/06:30pm -3.4 -12.6 -4.4 93 0.2 SW 35 43 19 23 1020.5 1021.6 1.0
21/06:00pm -3.3 -12.9 -4.7 90 0.3 SW 37 48 20 26 1020.2 1021.3 1.0
21/05:30pm -2.8 -12.0 -4.2 90 0.4 SW 35 50 19 27 1020.1 1021.2 1.0
21/05:00pm -3.0 -11.3 -4.9 87 0.5 SW 30 39 16 21 1020.0 1021.1 1.0
21/04:30pm -3.2 -10.7 -4.6 90 0.3 SSW 26 35 14 19 1020.1 1021.2 1.0
21/04:00pm -3.0 -10.9 -4.6 89 0.4 SSW 28 39 15 21 1019.9 1021.0 1.0
21/03:30pm -2.6 -8.7 -4.0 90 0.4 SSW 19 26 10 14 1019.6 1020.7 1.0
21/03:00pm -2.7 -9.1 -4.9 85 0.7 S 20 30 11 16 1019.6 1020.7 1.0
21/02:30pm -2.7 -9.1 -4.7 86 0.6 SSW 20 35 11 19 1019.9 1021.0 1.0
21/02:00pm -2.5 -10.1 -5.6 79 1.0 SSW 26 37 14 20 1019.4 1020.5 0.8
21/01:30pm -2.7 -11.6 -5.2 83 0.8 SW 33 43 18 23 1019.0 1020.1 0.0
21/01:00pm -3.1 -12.0 -5.6 83 0.7 SSW 33 43 18 23 1018.3 1019.3 0.0
21/12:30pm -3.6 -12.0 -5.7 85 0.6 SSW 30 44 16 24 1018.3 1019.3 0.0
21/12:00pm -3.6 -10.7 -4.6 93 0.2 S 24 39 13 21 1018.5 1019.6 0.0
21/11:30am -4.2 -12.9 -5.0 94 0.1 S 32 46 17 25 1017.8 1018.8 0.0
21/11:08am -4.5 -13.2 -5.5 93 0.1 S 32 56 17 30 1017.1 1018.1 0.0
21/11:00am -4.7 -13.7 -5.8 92 0.2 S 33 44 18 24 1017.2 1018.2 0.0
21/10:30am -4.9 -12.9 -5.9 93 0.1 S 28 41 15 22 1017.0 1017.9 0.0
21/10:00am -5.2 -14.2 -6.3 92 0.1 SSW 33 43 18 23 1016.7 1017.7 0.0
21/09:30am -5.2 -14.0 -6.3 92 0.1 S 32 48 17 26 1016.4 1017.3 0.0
21/09:00am -5.2 -14.6 -6.2 93 0.1 S 35 54 19 29 1015.6 1016.5 10.6
21/08:58am -5.3 -14.3 -6.2 93 0.1 S 33 52 18 28 1015.4 1016.3 10.6
21/08:30am -5.5 -15.7 -6.4 93 0.1 S 39 52 21 28 1015.0 1015.9 10.6
21/08:06am -5.8 -15.6 -6.7 93 0.1 S 37 57 20 31 1014.3 1015.1 10.6
21/08:00am -5.8 -15.2 -6.7 93 0.1 S 35 48 19 26 1014.4 1015.3 10.6
21/07:30am -6.1 -16.3 -7.0 93 0.0 S 39 59 21 32 - - 10.6
21/07:24am -6.0 -15.4 -6.9 93 0.0 SSW 35 59 19 32 - - 10.6
21/07:00am -6.1 -15.2 -6.9 94 0.0 SSW 33 50 18 27 - - 10.6
21/06:38am -6.2 -15.3 -7.0 94 0.0 SSW 33 61 18 33 - - 10.6
21/06:30am -6.2 -15.3 -7.0 94 0.0 SSW 33 43 18 23 - - 10.6
21/06:07am -6.3 -15.8 -7.1 94 0.0 S 35 54 19 29 - - 10.6
21/06:00am -6.3 -15.4 -7.1 94 0.0 SSW 33 46 18 25 - - 10.6
21/05:44am -6.4 -15.9 -7.2 94 0.0 SSW 35 54 19 29 - - 10.6
21/05:30am -6.6 -15.1 -7.4 94 0.0 SSW 30 41 16 22 - - 10.6
21/05:00am -6.9 -16.0 -7.7 94 0.0 SSW 33 54 18 29 - - 10.6
21/04:59am -6.8 -15.9 -7.6 94 0.0 SSW 33 54 18 29 - - 10.6
21/04:30am -7.2 -14.7 -8.0 94 0.0 SSW 24 37 13 20 - - 10.6
21/04:00am -7.7 -15.2 -8.9 91 0.1 SSW 24 35 13 19 - - 10.6
21/03:30am -7.7 -14.8 -8.9 91 0.1 SW 22 35 12 19 - - 10.6
21/03:00am -6.9 -13.6 -7.7 94 0.0 SSW 20 32 11 17 - - 10.6
21/02:46am -6.9 -15.5 -7.7 94 0.0 SSW 30 48 16 26 - - 10.6
21/02:30am -6.4 -13.4 -7.6 91 0.1 SW 22 35 12 19 - - 10.4
21/02:00am -6.7 -14.9 -7.8 92 0.1 SW 28 37 15 20 - - 10.4
21/01:30am -6.7 -14.2 -8.1 90 0.2 SW 24 39 13 21 - - 10.4
21/01:00am -6.8 -14.3 -8.0 91 0.1 WSW 24 33 13 18 - - 10.4
21/12:30am -6.3 -14.5 -7.8 89 0.2 W 28 39 15 21 - - 10.4
21/12:00am -5.8 -12.4 -7.2 90 0.2 WSW 20 28 11 15 - - 10.2
 
Date/Time
EST
Temp
°C
App
Temp
°C
Dew
Point
°C
Rel
Hum
%
Delta-T
°C
Wind Press
QNH
hPa
Press
MSL
hPa
Rain since
9am
mm
Dir  Spd
km/h
Gust
km/h
Spd
kts
Gust
kts
20/11:30pm -6.0 -13.4 -7.7 88 0.3 W 24 33 13 18 - - 10.2
20/11:00pm -5.8 -13.2 -7.0 91 0.1 W 24 39 13 21 - - 10.2
20/10:30pm -5.3 -12.6 -6.1 94 0.0 NW 24 32 13 17 - - 10.2
20/10:00pm -5.4 -11.9 -6.1 95 0.0 W 20 30 11 16 - - 10.2
20/09:30pm -5.3 -12.2 -6.0 95 0.0 W 22 35 12 19 - - 10.0
20/09:00pm -5.2 -14.2 -6.0 94 0.0 W 33 52 18 28 - - 10.0
20/08:37pm -4.6 -13.0 -5.8 91 0.2 WSW 30 48 16 26 - - 9.8
20/08:30pm -4.5 -12.9 -5.5 93 0.1 WSW 30 43 16 23 - - 9.6
20/08:00pm -4.4 -11.6 -5.1 95 0.0 W 24 39 13 21 - - 9.0
20/07:30pm -4.4 -12.7 -4.9 96 0.0 W 30 44 16 24 - - 8.6
20/07:00pm -4.3 -15.6 -5.0 95 0.1 W 46 82 25 44 - - 8.2
20/06:52pm -4.4 -15.8 -5.5 92 0.2 WNW 46 82 25 44 - - 8.2
20/06:30pm -3.7 -15.8 -4.7 93 0.2 NW 50 78 27 42 - - 8.0
20/06:00pm -3.7 -14.4 -4.4 95 0.1 WNW 43 70 23 38 - - 7.8
20/05:43pm -3.6 -11.5 -4.7 92 0.2 W 28 54 15 29 - - 7.8
20/05:30pm -3.5 -12.6 -4.0 96 0.0 W 35 54 19 29 - - 7.2
20/05:11pm -3.7 -11.5 -4.2 96 0.0 W 28 54 15 29 - - 7.2
20/05:00pm -3.6 -11.9 -4.6 93 0.2 WSW 30 44 16 24 - - 7.2
20/04:50pm -3.5 -11.4 -4.6 92 0.2 W 28 48 15 26 - - 7.0
20/04:30pm -3.9 -12.5 -4.6 95 0.1 WNW 32 48 17 26 - - 6.6
20/04:06pm -4.0 -14.4 -4.8 94 0.1 WNW 41 61 22 33 - - 6.6
20/04:00pm -4.0 -14.0 -5.1 92 0.2 W 39 54 21 29 - - 6.6
20/03:30pm -3.9 -14.8 -4.6 95 0.1 WNW 44 65 24 35 - - 6.6
20/03:11pm -3.9 -14.6 -4.6 95 0.1 WNW 43 65 23 35 - - 6.6
20/03:00pm -3.9 -14.6 -4.7 94 0.1 WNW 43 57 23 31 - - 6.4
20/02:34pm -3.5 -11.8 -4.6 92 0.2 WNW 30 48 16 26 - - 6.2
20/02:30pm -3.5 -11.4 -4.6 92 0.2 WNW 28 41 15 22 - - 6.2
20/02:16pm -3.3 -11.5 -4.4 92 0.2 WNW 30 48 16 26 - - 5.8
20/02:00pm -3.5 -12.6 -4.0 96 0.0 WNW 35 52 19 28 - - 5.6
20/01:33pm -3.8 -13.1 -5.0 91 0.2 WNW 35 57 19 31 - - 5.4
20/01:30pm -3.8 -13.4 -4.9 92 0.2 WNW 37 54 20 29 - - 5.4
20/01:11pm -3.7 -13.3 -4.4 95 0.1 W 37 57 20 31 - - 5.4
20/01:05pm -3.9 -14.3 -4.7 94 0.1 W 41 59 22 32 - - 5.4
20/01:00pm -3.8 -14.7 -4.5 95 0.1 WNW 44 67 24 36 - - 5.4
20/12:31pm -3.7 -14.4 -4.4 95 0.1 WNW 43 63 23 34 - - 5.4
20/12:30pm -3.6 -14.3 -4.3 95 0.1 WNW 43 59 23 32 - - 5.4
20/12:13pm -3.5 -14.8 -4.5 93 0.2 WNW 46 85 25 46 - - 5.4
20/12:00pm -3.4 -14.1 -4.4 93 0.2 W 43 65 23 35 - - 5.2
20/11:46am -2.6 -15.3 -3.7 92 0.3 WNW 54 85 29 46 - - 5.2
20/11:30am -2.0 -12.7 -3.0 93 0.3 WNW 44 65 24 35 - - 4.8
20/11:00am -1.5 -14.4 -2.3 94 0.2 WNW 56 85 30 46 - - 4.0
20/10:58am -1.4 -13.9 -2.2 94 0.2 WNW 54 85 29 46 - - 4.0
20/10:30am -0.9 -11.8 -1.6 95 0.2 NW 46 67 25 36 - - 3.4
20/10:23am -0.9 -12.6 -1.6 95 0.2 NW 50 69 27 37 - - 3.2
20/10:18am -0.9 -13.9 -1.5 96 0.2 NW 57 82 31 44 - - 3.2
20/10:00am -0.9 -15.5 -1.6 95 0.2 NW 65 83 35 45 - - 2.8
20/09:30am -0.7 -15.2 -1.3 96 0.2 NW 65 93 35 50 - - 1.2
20/09:24am -0.6 -15.1 -1.0 97 0.1 NW 65 93 35 50 - - 0.8
20/09:00am -0.8 -13.2 -1.4 96 0.2 NW 54 72 29 39 - - 8.0
20/08:30am -0.8 -12.1 -1.4 96 0.2 NW 48 69 26 37 - - 7.4
20/08:00am -0.8 -12.5 -1.4 96 0.2 WNW 50 76 27 41 - - 7.0
20/07:30am -0.6 -11.8 -1.0 97 0.1 NW 48 72 26 39 - - 6.6
20/07:00am -0.7 -13.1 -1.0 98 0.1 WNW 54 80 29 43 - - 5.8
20/06:30am -0.6 -13.4 -0.9 98 0.1 WNW 56 87 30 47 - - 3.8
20/06:00am -0.5 -13.4 -0.8 98 0.1 WNW 57 82 31 44 - - 3.0
20/05:30am -0.3 -12.6 -0.6 98 0.1 WNW 54 76 29 41 - - 2.6
20/05:00am -0.2 -11.0 -0.5 98 0.1 WNW 46 67 25 36 - - 2.0
20/04:30am -0.1 -11.6 -0.4 98 0.1 NW 50 78 27 42 - - 1.2
20/04:00am -0.3 -11.1 -0.7 97 0.1 NW 46 69 25 37 - - 0.6
20/03:30am -0.6 -13.4 -1.6 93 0.4 NW 56 76 30 41 - - 0.0
20/03:12am -0.1 -14.4 -2.2 86 0.8 NW 63 82 34 44 - - 0.0
20/03:00am 0.2 -14.4 -2.2 84 1.0 NW 65 82 35 44 - - 0.0
20/02:30am 0.4 -15.2 -2.5 81 1.2 NW 70 91 38 49 - - 0.0
20/02:00am 0.7 -13.6 -2.3 80 1.2 NW 63 93 34 50 - - 0.0
20/01:30am 0.3 -13.2 -2.6 81 1.1 NW 59 83 32 45 - - 0.0
20/01:00am 0.8 -13.5 -2.6 78 1.4 NW 63 82 34 44 - - 0.0
20/12:32am 0.5 -12.4 -2.0 83 1.0 NW 56 74 30 40 - - 0.0
20/12:30am 0.3 -12.6 -2.1 84 1.0 NW 56 72 30 39 - - 0.0
20/12:02am 0.4 -12.7 -1.8 85 0.9 NW 57 76 31 41 - - 0.0
20/12:00am 0.5 -13.0 -1.9 84 1.0 NW 59 76 32 41 - - 0.0
 
Date/Time
EST
Temp
°C
App
Temp
°C
Dew
Point
°C
Rel
Hum
%
Delta-T
°C
Wind Press
QNH
hPa
Press
MSL
hPa
Rain since
9am
mm
Dir  Spd
km/h
Gust
km/h
Spd
kts
Gust
kts
19/11:30pm 0.6 -13.6 -1.9 83 1.0 NW 63 87 34 47 - - 0.0
19/11:00pm 0.6 -13.6 -1.8 84 1.0 NW 63 83 34 45 - - 0.0
19/10:30pm 0.6 -14.0 -1.6 85 0.9 NW 65 83 35 45 1014.3 1015.1 0.0
19/10:11pm 0.7 -14.8 -1.5 85 0.9 NW 70 93 38 50 - - 0.0
19/10:00pm 0.7 -14.2 -1.4 86 0.9 NW 67 82 36 44 1014.4 1015.3 0.0
19/09:30pm 0.5 -14.4 -1.1 89 0.7 NW 67 82 36 44 1014.3 1015.1 0.0
19/09:00pm 0.3 -14.1 -0.8 92 0.5 NW 65 82 35 44 1014.9 1015.8 0.0
19/08:30pm 0.1 -13.5 -0.3 97 0.2 NW 61 74 33 40 1015.5 1016.4 0.0
19/08:00pm 0.1 -13.9 -0.5 96 0.3 NW 63 85 34 46 1015.5 1016.4 0.0
19/07:32pm 0.0 -14.1 -0.8 94 0.3 NW 63 82 34 44 1015.9 1016.8 0.0
19/07:30pm 0.1 -14.4 -0.9 93 0.4 NW 65 82 35 44 1015.5 1016.4 0.0
19/07:00pm -0.2 -13.2 -1.0 94 0.3 NW 57 80 31 43 1015.6 1016.5 0.0
19/06:30pm -0.2 -12.6 -0.9 95 0.3 NW 54 72 29 39 1015.7 1016.7 0.0
19/06:02pm -0.4 -14.9 -1.1 95 0.3 NW 65 83 35 45 1015.4 1016.3 0.0
19/06:00pm -0.3 -15.2 -1.0 95 0.3 NW 67 83 36 45 1015.1 1016.0 0.0
19/05:30pm -0.4 -14.5 -1.2 94 0.3 NW 63 87 34 47 1015.6 1016.5 0.0
19/05:29pm -0.3 -14.0 -1.0 95 0.3 NW 61 87 33 47 1014.9 1015.8 0.0
19/05:10pm -0.7 -12.3 -1.0 98 0.1 NW 50 69 27 37 1015.5 1016.4 0.0
19/05:00pm -0.6 -13.4 -1.0 97 0.1 NW 56 80 30 43 1016.4 1017.3 0.0
19/04:58pm -0.6 -14.3 -1.2 96 0.2 NW 61 91 33 49 1016.0 1016.9 0.0
19/04:51pm -0.4 -15.0 -1.7 91 0.5 NW 65 91 35 49 1014.5 1015.4 0.0
19/04:49pm -0.4 -14.6 -1.7 91 0.5 NW 63 91 34 49 1014.3 1015.1 0.0
19/04:30pm -0.6 -13.4 -1.2 96 0.2 NW 56 80 30 43 1015.3 1016.1 0.0
19/04:00pm -0.6 -13.6 -1.6 93 0.4 NW 57 76 31 41 1015.3 1016.1 0.0
19/03:30pm -0.9 -15.1 -1.5 96 0.2 NW 63 87 34 47 1015.3 1016.1 0.0
19/03:00pm -1.1 -14.9 -1.5 97 0.1 NW 61 82 33 44 1014.7 1015.5 0.0
19/02:51pm -1.0 -14.0 -1.6 96 0.2 NW 57 74 31 40 1015.0 1015.9 0.0
19/02:38pm -1.0 -13.5 -1.6 96 0.2 NW 54 80 29 43 1016.4 1017.3 0.0
19/02:30pm -1.0 -16.0 -2.0 93 0.3 NW 67 87 36 47 1015.6 1016.5 0.0
19/02:27pm -1.1 -16.1 -2.4 91 0.4 NW 67 87 36 47 1014.9 1015.8 0.0
19/02:21pm -1.2 -15.1 -2.5 91 0.4 NW 61 85 33 46 1014.3 1015.1 0.0
19/02:07pm -1.1 -15.0 -2.4 91 0.4 NW 61 87 33 47 1015.7 1016.7 0.0
19/02:05pm -1.1 -15.3 -2.1 93 0.3 NW 63 87 34 47 1016.1 1017.0 0.0
19/02:03pm -1.1 -15.3 -2.1 93 0.3 NW 63 87 34 47 1016.2 1017.2 0.0
19/02:00pm -1.2 -15.5 -2.3 92 0.4 NW 63 87 34 47 1014.5 1015.4 0.0
19/01:46pm -1.3 -14.8 -1.9 96 0.2 NW 59 82 32 44 1015.1 1016.0 0.0
19/01:42pm -1.1 -14.9 -1.9 94 0.3 NW 61 82 33 44 1015.7 1016.7 0.0
19/01:30pm -1.3 -16.9 -2.3 93 0.3 NW 70 93 38 50 1015.3 1016.1 0.0
19/01:00pm -1.5 -16.2 -2.5 93 0.3 NW 65 87 35 47 1015.9 1016.8 0.0
19/12:30pm -1.7 -16.0 -2.4 95 0.2 WNW 63 85 34 46 1015.6 1016.5 0.0
19/12:00pm -1.9 -16.5 -2.3 97 0.1 NW 65 89 35 48 1014.7 1015.5 0.0
19/11:30am -1.8 -17.3 -3.2 90 0.4 NW 69 93 37 50 1016.1 1017.0 0.0
19/11:00am -2.3 -19.2 -3.3 93 0.3 NW 76 98 41 53 1014.5 1015.4 0.0
19/10:30am -1.9 -19.6 -3.6 88 0.5 NW 80 100 43 54 - - 0.0
19/10:13am -2.4 -18.9 -3.4 93 0.3 NW 74 95 40 51 1014.9 1015.8 0.0
19/10:07am -2.5 -18.0 -3.3 94 0.2 NW 69 95 37 51 1014.8 1015.6 0.0
19/10:00am -2.2 -16.2 -3.2 93 0.3 WNW 61 82 33 44 1016.1 1017.0 0.0

Latest Capital City Observations: Canberra | Sydney | Melbourne | Brisbane | Adelaide | Perth | Hobart | Darwin

Other formats

Comma delimited format used in spreadsheet applications
http://www.bom.gov.au/fwo/IDN60903/IDN60903.95909.axf

JavaScript Object Notation format (JSON) in row-major order
http://www.bom.gov.au/fwo/IDN60903/IDN60903.95909.json

Data quality

Most of these data are generated automatically and are frequently updated. Quality checks on data are not normally performed. It is possible for incorrect values to appear. Refer to information at About Latest Weather Observations and please check the disclaimer before using these data.